CYQW

North Battleford Airport

North Battleford, Saskatchewan, Canada
METAR CYQW 201200Z AUTO 12010KT 9SM CLR M05/M09 A3023 RMK PRESFR SLP266
Observed Flight Rules
Oct-20 @ 12:00 UTC (an hour ago) Visual Flight Rules
Wind Visibility Clouds
120° at 10 knots 9 miles
  • Clear skies
Temperatures Readings
Current -5°C / 23°F
Dewpoint -9°C / 16°F
Humidity 74%
Altimeter 30.23" Hg
Pressure 1026.6 hPa
Elevation 548
METAR CYQW 201200Z AUTO 12010KT 9SM CLR M05/M09 A3023 RMK PRESFR SLP266
Observed Flight Rules
Oct-20 @ 12:00 UTC
(an hour ago)
VFR
Wind Visibility
120° at 10 knots 9 miles
Clouds
  • Clear skies
Temperature Dewpoint
-5°C / 23°F -9°C / 16°F
Humidity Altimeter Pressure
74% 30.23" Hg 1026.6 hPa